Terminal Aerodrome Forecast
Issued by NWS

Home | Current Version | Previous Version | Text Only | Print | Product List | Glossary On
Versions: 1 2 3 4 5 6 7 8 9 10 11 12
937
FTUS45 KRIW 212322
TAFCPR
TAF
KCPR 212322Z 2200/2224 23014KT P6SM SCT200
     FM220900 23020G30KT P6SM SCT200
     FM221500 23032G40KT P6SM FEW070 SCT200
     FM222300 23022G30KT P6SM FEW090 BKN200=

USA.gov is the U.S. government's official web portal to all federal, state and local government web resources and services.